sensor_id;sensor_type;location;lat;lon;timestamp;P1;durP1;ratioP1;P2;durP2;ratioP2
10882;SDS011;5494;51.796;10.952;2023-03-01T00:02:46;7.13;;;4.00;;
10882;SDS011;5494;51.796;10.952;2023-03-01T00:05:34;5.90;;;3.53;;
10882;SDS011;5494;51.796;10.952;2023-03-01T00:08:25;6.75;;;4.13;;
10882;SDS011;5494;51.796;10.952;2023-03-01T00:11:17;6.35;;;3.58;;
10882;SDS011;5494;51.796;10.952;2023-03-01T00:14:07;4.80;;;3.40;;
10882;SDS011;5494;51.796;10.952;2023-03-01T00:16:56;7.47;;;4.45;;
10882;SDS011;5494;51.796;10.952;2023-03-01T00:19:44;5.47;;;3.60;;
10882;SDS011;5494;51.796;10.952;2023-03-01T00:22:33;6.78;;;3.80;;
10882;SDS011;5494;51.796;10.952;2023-03-01T00:25:22;5.20;;;3.65;;
10882;SDS011;5494;51.796;10.952;2023-03-01T00:28:11;6.43;;;3.83;;
10882;SDS011;5494;51.796;10.952;2023-03-01T00:31:02;8.00;;;4.03;;
10882;SDS011;5494;51.796;10.952;2023-03-01T00:33:52;6.82;;;3.67;;
10882;SDS011;5494;51.796;10.952;2023-03-01T00:36:43;5.43;;;3.83;;
10882;SDS011;5494;51.796;10.952;2023-03-01T00:39:32;9.98;;;4.00;;
10882;SDS011;5494;51.796;10.952;2023-03-01T00:42:21;6.05;;;3.80;;
10882;SDS011;5494;51.796;10.952;2023-03-01T00:45:10;8.98;;;4.00;;
10882;SDS011;5494;51.796;10.952;2023-03-01T00:48:00;5.82;;;4.13;;
10882;SDS011;5494;51.796;10.952;2023-03-01T00:50:48;7.57;;;4.15;;
10882;SDS011;5494;51.796;10.952;2023-03-01T00:53:36;5.28;;;3.92;;
10882;SDS011;5494;51.796;10.952;2023-03-01T00:56:26;6.07;;;3.60;;
10882;SDS011;5494;51.796;10.952;2023-03-01T00:59:17;6.35;;;4.20;;
10882;SDS011;5494;51.796;10.952;2023-03-01T01:02:05;8.07;;;4.05;;
10882;SDS011;5494;51.796;10.952;2023-03-01T01:04:53;6.85;;;4.40;;
10882;SDS011;5494;51.796;10.952;2023-03-01T01:07:42;7.97;;;4.32;;
10882;SDS011;5494;51.796;10.952;2023-03-01T01:10:30;8.30;;;4.45;;
10882;SDS011;5494;51.796;10.952;2023-03-01T01:13:21;9.02;;;4.88;;
10882;SDS011;5494;51.796;10.952;2023-03-01T01:16:10;11.23;;;5.32;;
10882;SDS011;5494;51.796;10.952;2023-03-01T01:19:00;8.07;;;4.65;;
10882;SDS011;5494;51.796;10.952;2023-03-01T01:21:48;7.45;;;5.13;;
10882;SDS011;5494;51.796;10.952;2023-03-01T01:24:37;8.55;;;4.38;;
10882;SDS011;5494;51.796;10.952;2023-03-01T01:27:26;8.10;;;4.18;;
10882;SDS011;5494;51.796;10.952;2023-03-01T01:30:14;6.78;;;3.95;;
10882;SDS011;5494;51.796;10.952;2023-03-01T01:33:04;7.20;;;4.25;;
10882;SDS011;5494;51.796;10.952;2023-03-01T01:35:52;5.82;;;4.00;;
10882;SDS011;5494;51.796;10.952;2023-03-01T01:38:41;6.53;;;3.80;;
10882;SDS011;5494;51.796;10.952;2023-03-01T01:41:30;7.00;;;3.97;;
10882;SDS011;5494;51.796;10.952;2023-03-01T01:44:20;7.85;;;4.50;;
10882;SDS011;5494;51.796;10.952;2023-03-01T01:47:12;6.72;;;4.40;;
10882;SDS011;5494;51.796;10.952;2023-03-01T01:50:08;14.82;;;8.77;;
10882;SDS011;5494;51.796;10.952;2023-03-01T01:53:05;16.27;;;10.27;;
10882;SDS011;5494;51.796;10.952;2023-03-01T01:55:59;13.82;;;9.15;;
10882;SDS011;5494;51.796;10.952;2023-03-01T01:58:50;13.43;;;7.55;;
10882;SDS011;5494;51.796;10.952;2023-03-01T02:01:38;10.43;;;6.78;;
10882;SDS011;5494;51.796;10.952;2023-03-01T02:04:27;12.65;;;5.80;;
10882;SDS011;5494;51.796;10.952;2023-03-01T02:07:18;10.23;;;5.82;;
10882;SDS011;5494;51.796;10.952;2023-03-01T02:10:10;8.55;;;4.95;;
10882;SDS011;5494;51.796;10.952;2023-03-01T02:12:58;7.35;;;4.78;;
10882;SDS011;5494;51.796;10.952;2023-03-01T02:15:47;7.25;;;4.50;;
10882;SDS011;5494;51.796;10.952;2023-03-01T02:18:36;9.13;;;5.10;;
10882;SDS011;5494;51.796;10.952;2023-03-01T02:21:30;7.65;;;4.35;;
10882;SDS011;5494;51.796;10.952;2023-03-01T02:24:36;8.40;;;4.55;;
10882;SDS011;5494;51.796;10.952;2023-03-01T02:27:38;9.73;;;5.60;;
10882;SDS011;5494;51.796;10.952;2023-03-01T02:30:38;11.52;;;6.00;;
10882;SDS011;5494;51.796;10.952;2023-03-01T02:33:48;8.95;;;5.32;;
10882;SDS011;5494;51.796;10.952;2023-03-01T02:36:37;8.50;;;5.00;;
10882;SDS011;5494;51.796;10.952;2023-03-01T02:39:30;8.82;;;4.82;;
10882;SDS011;5494;51.796;10.952;2023-03-01T02:42:22;9.57;;;5.50;;
10882;SDS011;5494;51.796;10.952;2023-03-01T02:45:19;8.32;;;5.32;;
10882;SDS011;5494;51.796;10.952;2023-03-01T02:48:09;9.32;;;4.90;;
10882;SDS011;5494;51.796;10.952;2023-03-01T02:51:02;7.10;;;4.55;;
10882;SDS011;5494;51.796;10.952;2023-03-01T02:54:17;9.80;;;5.05;;
10882;SDS011;5494;51.796;10.952;2023-03-01T02:57:16;8.07;;;4.45;;
10882;SDS011;5494;51.796;10.952;2023-03-01T03:00:06;6.57;;;4.53;;
10882;SDS011;5494;51.796;10.952;2023-03-01T03:03:05;7.32;;;4.60;;
10882;SDS011;5494;51.796;10.952;2023-03-01T03:05:56;9.13;;;4.80;;
10882;SDS011;5494;51.796;10.952;2023-03-01T03:08:45;9.13;;;5.35;;
10882;SDS011;5494;51.796;10.952;2023-03-01T03:11:33;10.25;;;5.47;;
10882;SDS011;5494;51.796;10.952;2023-03-01T03:14:23;10.48;;;5.63;;
10882;SDS011;5494;51.796;10.952;2023-03-01T03:17:12;11.80;;;5.10;;
10882;SDS011;5494;51.796;10.952;2023-03-01T03:20:00;10.77;;;5.60;;
10882;SDS011;5494;51.796;10.952;2023-03-01T03:22:52;8.88;;;5.00;;
10882;SDS011;5494;51.796;10.952;2023-03-01T03:25:42;10.07;;;5.63;;
10882;SDS011;5494;51.796;10.952;2023-03-01T03:28:31;9.60;;;5.28;;
10882;SDS011;5494;51.796;10.952;2023-03-01T03:31:20;8.25;;;5.22;;
10882;SDS011;5494;51.796;10.952;2023-03-01T03:34:08;8.73;;;5.22;;
10882;SDS011;5494;51.796;10.952;2023-03-01T03:37:04;7.32;;;4.60;;
10882;SDS011;5494;51.796;10.952;2023-03-01T03:40:13;10.73;;;5.65;;
10882;SDS011;5494;51.796;10.952;2023-03-01T03:43:02;12.20;;;5.72;;
10882;SDS011;5494;51.796;10.952;2023-03-01T03:45:55;7.07;;;4.28;;
10882;SDS011;5494;51.796;10.952;2023-03-01T03:48:44;10.30;;;4.95;;
10882;SDS011;5494;51.796;10.952;2023-03-01T03:51:33;11.90;;;4.97;;
10882;SDS011;5494;51.796;10.952;2023-03-01T03:54:21;8.55;;;4.80;;
10882;SDS011;5494;51.796;10.952;2023-03-01T03:57:11;9.00;;;4.95;;
10882;SDS011;5494;51.796;10.952;2023-03-01T04:00:00;9.18;;;4.97;;
10882;SDS011;5494;51.796;10.952;2023-03-01T04:02:57;8.45;;;4.93;;
10882;SDS011;5494;51.796;10.952;2023-03-01T04:05:47;7.97;;;4.57;;
10882;SDS011;5494;51.796;10.952;2023-03-01T04:08:37;10.05;;;5.70;;
10882;SDS011;5494;51.796;10.952;2023-03-01T04:11:25;9.45;;;5.05;;
10882;SDS011;5494;51.796;10.952;2023-03-01T04:14:15;10.27;;;5.25;;
10882;SDS011;5494;51.796;10.952;2023-03-01T04:17:03;10.73;;;5.63;;
10882;SDS011;5494;51.796;10.952;2023-03-01T04:19:51;7.95;;;4.75;;
10882;SDS011;5494;51.796;10.952;2023-03-01T04:22:40;8.98;;;4.45;;
10882;SDS011;5494;51.796;10.952;2023-03-01T04:25:28;10.57;;;6.03;;
10882;SDS011;5494;51.796;10.952;2023-03-01T04:28:17;14.50;;;6.22;;
10882;SDS011;5494;51.796;10.952;2023-03-01T04:31:07;10.52;;;5.75;;
10882;SDS011;5494;51.796;10.952;2023-03-01T04:34:03;13.13;;;6.25;;
10882;SDS011;5494;51.796;10.952;2023-03-01T04:36:51;12.15;;;6.85;;
10882;SDS011;5494;51.796;10.952;2023-03-01T04:39:39;11.52;;;6.63;;
10882;SDS011;5494;51.796;10.952;2023-03-01T04:42:32;8.45;;;4.95;;
10882;SDS011;5494;51.796;10.952;2023-03-01T04:45:20;11.05;;;5.38;;
10882;SDS011;5494;51.796;10.952;2023-03-01T04:48:10;9.57;;;4.57;;
10882;SDS011;5494;51.796;10.952;2023-03-01T04:50:58;8.00;;;4.90;;
10882;SDS011;5494;51.796;10.952;2023-03-01T04:53:47;21.30;;;10.38;;
10882;SDS011;5494;51.796;10.952;2023-03-01T04:56:35;12.38;;;6.88;;
10882;SDS011;5494;51.796;10.952;2023-03-01T04:59:24;14.60;;;5.72;;
10882;SDS011;5494;51.796;10.952;2023-03-01T05:02:12;7.60;;;5.57;;
10882;SDS011;5494;51.796;10.952;2023-03-01T05:05:02;8.98;;;5.22;;
10882;SDS011;5494;51.796;10.952;2023-03-01T05:07:53;8.85;;;5.38;;
10882;SDS011;5494;51.796;10.952;2023-03-01T05:10:43;11.00;;;5.20;;
10882;SDS011;5494;51.796;10.952;2023-03-01T05:13:33;8.00;;;4.95;;
10882;SDS011;5494;51.796;10.952;2023-03-01T05:16:23;10.80;;;4.60;;
10882;SDS011;5494;51.796;10.952;2023-03-01T05:19:11;8.05;;;4.95;;
10882;SDS011;5494;51.796;10.952;2023-03-01T05:22:03;8.90;;;5.13;;
10882;SDS011;5494;51.796;10.952;2023-03-01T05:24:51;9.95;;;5.75;;
10882;SDS011;5494;51.796;10.952;2023-03-01T05:27:40;31.05;;;14.25;;
10882;SDS011;5494;51.796;10.952;2023-03-01T05:30:29;19.80;;;10.23;;
10882;SDS011;5494;51.796;10.952;2023-03-01T05:33:19;8.80;;;5.57;;
10882;SDS011;5494;51.796;10.952;2023-03-01T05:36:09;9.05;;;5.75;;
10882;SDS011;5494;51.796;10.952;2023-03-01T05:38:59;7.63;;;5.07;;
10882;SDS011;5494;51.796;10.952;2023-03-01T05:41:48;8.95;;;4.57;;
10882;SDS011;5494;51.796;10.952;2023-03-01T05:44:39;11.52;;;5.30;;
10882;SDS011;5494;51.796;10.952;2023-03-01T05:47:28;11.30;;;5.53;;
10882;SDS011;5494;51.796;10.952;2023-03-01T05:50:18;12.80;;;6.90;;
10882;SDS011;5494;51.796;10.952;2023-03-01T05:53:10;18.20;;;9.55;;
10882;SDS011;5494;51.796;10.952;2023-03-01T05:56:03;26.42;;;15.02;;
10882;SDS011;5494;51.796;10.952;2023-03-01T05:58:52;25.48;;;14.48;;
10882;SDS011;5494;51.796;10.952;2023-03-01T06:01:41;23.95;;;11.23;;
10882;SDS011;5494;51.796;10.952;2023-03-01T06:04:29;17.05;;;8.10;;
10882;SDS011;5494;51.796;10.952;2023-03-01T06:07:18;17.52;;;8.60;;
10882;SDS011;5494;51.796;10.952;2023-03-01T06:10:07;15.68;;;9.02;;
10882;SDS011;5494;51.796;10.952;2023-03-01T06:12:58;22.25;;;11.27;;
10882;SDS011;5494;51.796;10.952;2023-03-01T06:15:47;18.48;;;10.02;;
10882;SDS011;5494;51.796;10.952;2023-03-01T06:18:35;13.75;;;8.05;;
10882;SDS011;5494;51.796;10.952;2023-03-01T06:21:24;13.15;;;7.55;;
10882;SDS011;5494;51.796;10.952;2023-03-01T06:24:12;11.57;;;7.10;;
10882;SDS011;5494;51.796;10.952;2023-03-01T06:27:01;16.27;;;8.40;;
10882;SDS011;5494;51.796;10.952;2023-03-01T06:29:50;18.63;;;8.32;;
10882;SDS011;5494;51.796;10.952;2023-03-01T06:32:38;13.15;;;7.97;;
10882;SDS011;5494;51.796;10.952;2023-03-01T06:35:29;14.23;;;9.02;;
10882;SDS011;5494;51.796;10.952;2023-03-01T06:38:17;17.13;;;9.73;;
10882;SDS011;5494;51.796;10.952;2023-03-01T06:41:06;13.73;;;8.93;;
10882;SDS011;5494;51.796;10.952;2023-03-01T06:43:55;16.15;;;9.35;;
10882;SDS011;5494;51.796;10.952;2023-03-01T06:46:44;13.63;;;8.18;;
10882;SDS011;5494;51.796;10.952;2023-03-01T06:49:33;12.38;;;7.70;;
10882;SDS011;5494;51.796;10.952;2023-03-01T06:52:21;13.70;;;8.77;;
10882;SDS011;5494;51.796;10.952;2023-03-01T06:55:09;14.05;;;8.27;;
10882;SDS011;5494;51.796;10.952;2023-03-01T06:58:00;13.65;;;7.82;;
10882;SDS011;5494;51.796;10.952;2023-03-01T07:00:49;12.68;;;7.30;;
10882;SDS011;5494;51.796;10.952;2023-03-01T07:03:39;12.80;;;7.40;;
10882;SDS011;5494;51.796;10.952;2023-03-01T07:06:30;9.90;;;6.05;;
10882;SDS011;5494;51.796;10.952;2023-03-01T07:09:19;8.23;;;5.80;;
10882;SDS011;5494;51.796;10.952;2023-03-01T07:12:08;7.63;;;6.07;;
10882;SDS011;5494;51.796;10.952;2023-03-01T07:14:56;8.70;;;6.10;;
10882;SDS011;5494;51.796;10.952;2023-03-01T07:17:45;11.20;;;6.90;;
10882;SDS011;5494;51.796;10.952;2023-03-01T07:20:37;10.60;;;7.20;;
10882;SDS011;5494;51.796;10.952;2023-03-01T07:23:26;12.43;;;7.83;;
10882;SDS011;5494;51.796;10.952;2023-03-01T07:26:14;12.20;;;7.90;;
10882;SDS011;5494;51.796;10.952;2023-03-01T07:29:03;12.27;;;8.70;;
10882;SDS011;5494;51.796;10.952;2023-03-01T07:31:54;11.07;;;7.97;;
10882;SDS011;5494;51.796;10.952;2023-03-01T07:34:42;12.80;;;9.13;;
10882;SDS011;5494;51.796;10.952;2023-03-01T07:37:32;12.13;;;9.10;;
10882;SDS011;5494;51.796;10.952;2023-03-01T07:40:20;11.93;;;9.07;;
10882;SDS011;5494;51.796;10.952;2023-03-01T07:43:10;11.53;;;9.00;;
10882;SDS011;5494;51.796;10.952;2023-03-01T07:45:58;12.53;;;9.53;;
10882;SDS011;5494;51.796;10.952;2023-03-01T07:48:47;13.53;;;9.57;;
10882;SDS011;5494;51.796;10.952;2023-03-01T07:51:35;13.93;;;9.00;;
10882;SDS011;5494;51.796;10.952;2023-03-01T07:54:25;12.97;;;9.97;;
10882;SDS011;5494;51.796;10.952;2023-03-01T07:57:13;12.93;;;9.33;;
10882;SDS011;5494;51.796;10.952;2023-03-01T08:00:02;14.93;;;10.37;;
10882;SDS011;5494;51.796;10.952;2023-03-01T08:02:58;15.53;;;9.63;;
10882;SDS011;5494;51.796;10.952;2023-03-01T08:05:47;12.73;;;9.63;;
10882;SDS011;5494;51.796;10.952;2023-03-01T08:08:36;10.33;;;8.63;;
10882;SDS011;5494;51.796;10.952;2023-03-01T08:11:26;13.67;;;9.50;;
10882;SDS011;5494;51.796;10.952;2023-03-01T08:14:15;10.70;;;7.87;;
10882;SDS011;5494;51.796;10.952;2023-03-01T08:17:03;11.23;;;6.93;;
10882;SDS011;5494;51.796;10.952;2023-03-01T08:19:52;11.53;;;7.33;;
10882;SDS011;5494;51.796;10.952;2023-03-01T08:22:40;10.93;;;7.30;;
10882;SDS011;5494;51.796;10.952;2023-03-01T08:25:28;12.10;;;7.80;;
10882;SDS011;5494;51.796;10.952;2023-03-01T08:28:18;10.07;;;8.37;;
10882;SDS011;5494;51.796;10.952;2023-03-01T08:31:13;11.37;;;8.63;;
10882;SDS011;5494;51.796;10.952;2023-03-01T08:34:05;14.53;;;8.87;;
10882;SDS011;5494;51.796;10.952;2023-03-01T08:36:56;13.13;;;8.93;;
10882;SDS011;5494;51.796;10.952;2023-03-01T08:39:44;11.23;;;8.87;;
10882;SDS011;5494;51.796;10.952;2023-03-01T08:42:34;12.77;;;9.83;;
10882;SDS011;5494;51.796;10.952;2023-03-01T08:45:24;10.50;;;8.53;;
10882;SDS011;5494;51.796;10.952;2023-03-01T08:48:12;11.60;;;7.93;;
10882;SDS011;5494;51.796;10.952;2023-03-01T08:51:06;12.03;;;7.40;;
10882;SDS011;5494;51.796;10.952;2023-03-01T08:53:56;15.17;;;7.40;;
10882;SDS011;5494;51.796;10.952;2023-03-01T08:56:44;8.83;;;6.27;;
10882;SDS011;5494;51.796;10.952;2023-03-01T08:59:33;13.77;;;6.30;;
10882;SDS011;5494;51.796;10.952;2023-03-01T09:02:25;10.33;;;6.73;;
10882;SDS011;5494;51.796;10.952;2023-03-01T09:05:13;7.23;;;5.97;;
10882;SDS011;5494;51.796;10.952;2023-03-01T09:08:04;9.27;;;6.47;;
10882;SDS011;5494;51.796;10.952;2023-03-01T09:10:54;7.87;;;6.23;;
10882;SDS011;5494;51.796;10.952;2023-03-01T09:13:43;7.63;;;6.13;;
10882;SDS011;5494;51.796;10.952;2023-03-01T09:16:32;8.87;;;6.07;;
10882;SDS011;5494;51.796;10.952;2023-03-01T09:19:23;9.00;;;5.80;;
10882;SDS011;5494;51.796;10.952;2023-03-01T09:22:13;8.67;;;6.00;;
10882;SDS011;5494;51.796;10.952;2023-03-01T09:25:01;8.00;;;5.73;;
10882;SDS011;5494;51.796;10.952;2023-03-01T09:27:50;9.10;;;5.83;;
10882;SDS011;5494;51.796;10.952;2023-03-01T09:30:39;7.57;;;5.87;;
10882;SDS011;5494;51.796;10.952;2023-03-01T09:33:27;9.60;;;6.13;;
10882;SDS011;5494;51.796;10.952;2023-03-01T09:36:19;7.87;;;5.57;;
10882;SDS011;5494;51.796;10.952;2023-03-01T09:39:10;9.50;;;6.07;;
10882;SDS011;5494;51.796;10.952;2023-03-01T09:41:59;9.30;;;5.93;;
10882;SDS011;5494;51.796;10.952;2023-03-01T09:44:51;9.83;;;6.17;;
10882;SDS011;5494;51.796;10.952;2023-03-01T09:47:45;7.87;;;5.93;;
10882;SDS011;5494;51.796;10.952;2023-03-01T09:50:35;9.03;;;6.17;;
10882;SDS011;5494;51.796;10.952;2023-03-01T09:53:34;9.93;;;6.17;;
10882;SDS011;5494;51.796;10.952;2023-03-01T09:56:24;9.43;;;6.37;;
10882;SDS011;5494;51.796;10.952;2023-03-01T09:59:21;10.60;;;6.83;;
10882;SDS011;5494;51.796;10.952;2023-03-01T10:02:21;8.00;;;5.63;;
10882;SDS011;5494;51.796;10.952;2023-03-01T10:05:27;9.07;;;6.00;;
10882;SDS011;5494;51.796;10.952;2023-03-01T10:08:32;8.57;;;6.57;;
10882;SDS011;5494;51.796;10.952;2023-03-01T10:11:28;11.67;;;6.83;;
10882;SDS011;5494;51.796;10.952;2023-03-01T10:14:24;10.20;;;6.30;;
10882;SDS011;5494;51.796;10.952;2023-03-01T10:17:24;7.33;;;5.80;;
10882;SDS011;5494;51.796;10.952;2023-03-01T10:20:20;8.50;;;6.10;;
10882;SDS011;5494;51.796;10.952;2023-03-01T10:23:11;8.77;;;6.13;;
10882;SDS011;5494;51.796;10.952;2023-03-01T10:26:05;7.37;;;5.60;;
10882;SDS011;5494;51.796;10.952;2023-03-01T10:29:06;11.97;;;6.47;;
10882;SDS011;5494;51.796;10.952;2023-03-01T10:31:56;8.37;;;5.87;;
10882;SDS011;5494;51.796;10.952;2023-03-01T10:34:44;9.43;;;5.60;;
10882;SDS011;5494;51.796;10.952;2023-03-01T10:37:35;8.47;;;6.43;;
10882;SDS011;5494;51.796;10.952;2023-03-01T10:40:53;7.87;;;5.00;;
10882;SDS011;5494;51.796;10.952;2023-03-01T10:43:46;7.33;;;5.37;;
10882;SDS011;5494;51.796;10.952;2023-03-01T10:46:38;11.33;;;6.47;;
10882;SDS011;5494;51.796;10.952;2023-03-01T10:49:26;8.63;;;5.60;;
10882;SDS011;5494;51.796;10.952;2023-03-01T10:52:17;8.70;;;5.93;;
10882;SDS011;5494;51.796;10.952;2023-03-01T10:55:21;9.03;;;5.63;;
10882;SDS011;5494;51.796;10.952;2023-03-01T10:58:17;12.10;;;6.13;;
10882;SDS011;5494;51.796;10.952;2023-03-01T11:04:15;10.30;;;5.43;;
10882;SDS011;5494;51.796;10.952;2023-03-01T11:07:03;10.30;;;5.38;;
10882;SDS011;5494;51.796;10.952;2023-03-01T11:09:52;9.73;;;5.90;;
10882;SDS011;5494;51.796;10.952;2023-03-01T11:12:41;13.87;;;6.80;;
10882;SDS011;5494;51.796;10.952;2023-03-01T11:15:30;7.67;;;5.53;;
10882;SDS011;5494;51.796;10.952;2023-03-01T11:18:20;9.48;;;5.78;;
10882;SDS011;5494;51.796;10.952;2023-03-01T11:21:30;9.07;;;5.17;;
10882;SDS011;5494;51.796;10.952;2023-03-01T11:24:23;9.47;;;5.57;;
10882;SDS011;5494;51.796;10.952;2023-03-01T11:27:22;10.23;;;5.83;;
10882;SDS011;5494;51.796;10.952;2023-03-01T11:30:16;9.13;;;5.83;;
10882;SDS011;5494;51.796;10.952;2023-03-01T11:33:13;8.87;;;5.60;;
10882;SDS011;5494;51.796;10.952;2023-03-01T11:36:11;8.20;;;5.77;;
10882;SDS011;5494;51.796;10.952;2023-03-01T11:39:12;8.67;;;5.93;;
10882;SDS011;5494;51.796;10.952;2023-03-01T11:42:15;10.07;;;6.30;;
10882;SDS011;5494;51.796;10.952;2023-03-01T11:45:11;8.53;;;5.63;;
10882;SDS011;5494;51.796;10.952;2023-03-01T11:48:06;7.87;;;5.00;;
10882;SDS011;5494;51.796;10.952;2023-03-01T11:51:41;6.47;;;5.43;;
10882;SDS011;5494;51.796;10.952;2023-03-01T11:54:45;10.57;;;6.30;;
10882;SDS011;5494;51.796;10.952;2023-03-01T11:57:59;9.30;;;5.73;;
10882;SDS011;5494;51.796;10.952;2023-03-01T12:01:09;11.53;;;5.87;;
10882;SDS011;5494;51.796;10.952;2023-03-01T12:04:26;8.20;;;5.37;;
10882;SDS011;5494;51.796;10.952;2023-03-01T12:08:03;8.80;;;5.60;;
10882;SDS011;5494;51.796;10.952;2023-03-01T12:11:04;7.20;;;5.27;;
10882;SDS011;5494;51.796;10.952;2023-03-01T12:14:17;9.00;;;5.97;;
10882;SDS011;5494;51.796;10.952;2023-03-01T12:17:31;8.80;;;5.90;;
10882;SDS011;5494;51.796;10.952;2023-03-01T12:20:43;11.10;;;6.53;;
10882;SDS011;5494;51.796;10.952;2023-03-01T12:23:51;8.87;;;5.73;;
10882;SDS011;5494;51.796;10.952;2023-03-01T12:27:03;10.38;;;5.70;;
10882;SDS011;5494;51.796;10.952;2023-03-01T12:33:19;8.10;;;4.83;;
10882;SDS011;5494;51.796;10.952;2023-03-01T12:36:22;6.93;;;5.00;;
10882;SDS011;5494;51.796;10.952;2023-03-01T12:39:35;7.17;;;4.93;;
10882;SDS011;5494;51.796;10.952;2023-03-01T12:42:39;7.77;;;4.73;;
10882;SDS011;5494;51.796;10.952;2023-03-01T12:45:46;7.60;;;4.73;;
10882;SDS011;5494;51.796;10.952;2023-03-01T12:48:53;7.35;;;4.65;;
10882;SDS011;5494;51.796;10.952;2023-03-01T12:51:56;6.83;;;4.80;;
10882;SDS011;5494;51.796;10.952;2023-03-01T12:54:51;8.57;;;4.53;;
10882;SDS011;5494;51.796;10.952;2023-03-01T12:57:44;9.37;;;4.90;;
10882;SDS011;5494;51.796;10.952;2023-03-01T13:00:42;6.10;;;3.73;;
10882;SDS011;5494;51.796;10.952;2023-03-01T13:04:05;7.03;;;4.30;;
10882;SDS011;5494;51.796;10.952;2023-03-01T13:07:11;4.40;;;3.73;;
10882;SDS011;5494;51.796;10.952;2023-03-01T13:10:17;7.47;;;5.13;;
10882;SDS011;5494;51.796;10.952;2023-03-01T13:13:18;7.60;;;4.07;;
10882;SDS011;5494;51.796;10.952;2023-03-01T13:16:20;8.47;;;4.80;;
10882;SDS011;5494;51.796;10.952;2023-03-01T13:19:29;7.10;;;4.50;;
10882;SDS011;5494;51.796;10.952;2023-03-01T13:22:25;8.60;;;4.30;;
10882;SDS011;5494;51.796;10.952;2023-03-01T13:25:21;6.80;;;4.50;;
10882;SDS011;5494;51.796;10.952;2023-03-01T13:34:47;8.63;;;5.33;;
10882;SDS011;5494;51.796;10.952;2023-03-01T13:37:43;6.17;;;4.53;;
10882;SDS011;5494;51.796;10.952;2023-03-01T13:43:47;8.70;;;4.60;;
10882;SDS011;5494;51.796;10.952;2023-03-01T13:46:35;6.83;;;4.47;;
10882;SDS011;5494;51.796;10.952;2023-03-01T13:49:25;5.67;;;4.10;;
10882;SDS011;5494;51.796;10.952;2023-03-01T13:52:34;7.80;;;4.20;;
10882;SDS011;5494;51.796;10.952;2023-03-01T13:55:29;6.27;;;4.10;;
10882;SDS011;5494;51.796;10.952;2023-03-01T13:58:27;6.87;;;4.23;;
10882;SDS011;5494;51.796;10.952;2023-03-01T14:01:22;6.87;;;4.40;;
10882;SDS011;5494;51.796;10.952;2023-03-01T14:04:18;6.50;;;4.23;;
10882;SDS011;5494;51.796;10.952;2023-03-01T14:07:10;6.50;;;4.10;;
10882;SDS011;5494;51.796;10.952;2023-03-01T14:10:04;6.73;;;4.30;;
10882;SDS011;5494;51.796;10.952;2023-03-01T14:12:55;6.10;;;4.03;;
10882;SDS011;5494;51.796;10.952;2023-03-01T14:16:07;4.97;;;4.20;;
10882;SDS011;5494;51.796;10.952;2023-03-01T14:19:17;5.93;;;4.40;;
10882;SDS011;5494;51.796;10.952;2023-03-01T14:22:20;6.83;;;3.77;;
10882;SDS011;5494;51.796;10.952;2023-03-01T14:25:19;5.90;;;4.53;;
10882;SDS011;5494;51.796;10.952;2023-03-01T14:28:14;5.83;;;3.70;;
10882;SDS011;5494;51.796;10.952;2023-03-01T14:34:42;7.03;;;3.67;;
10882;SDS011;5494;51.796;10.952;2023-03-01T14:37:32;6.87;;;4.00;;
10882;SDS011;5494;51.796;10.952;2023-03-01T14:40:23;6.87;;;4.33;;
10882;SDS011;5494;51.796;10.952;2023-03-01T14:43:16;6.93;;;3.60;;
10882;SDS011;5494;51.796;10.952;2023-03-01T14:46:17;7.07;;;3.93;;
10882;SDS011;5494;51.796;10.952;2023-03-01T14:49:11;7.40;;;4.33;;
10882;SDS011;5494;51.796;10.952;2023-03-01T14:52:03;6.33;;;4.07;;
10882;SDS011;5494;51.796;10.952;2023-03-01T14:54:55;7.17;;;4.17;;
10882;SDS011;5494;51.796;10.952;2023-03-01T14:57:43;5.70;;;4.53;;
10882;SDS011;5494;51.796;10.952;2023-03-01T15:00:35;9.70;;;4.53;;
10882;SDS011;5494;51.796;10.952;2023-03-01T15:03:26;6.03;;;4.13;;
10882;SDS011;5494;51.796;10.952;2023-03-01T15:06:22;6.60;;;4.60;;
10882;SDS011;5494;51.796;10.952;2023-03-01T15:09:12;5.93;;;4.63;;
10882;SDS011;5494;51.796;10.952;2023-03-01T15:15:30;8.17;;;3.87;;
10882;SDS011;5494;51.796;10.952;2023-03-01T15:18:25;5.73;;;4.40;;
10882;SDS011;5494;51.796;10.952;2023-03-01T15:21:17;8.40;;;3.70;;
10882;SDS011;5494;51.796;10.952;2023-03-01T15:24:16;5.00;;;3.90;;
10882;SDS011;5494;51.796;10.952;2023-03-01T15:27:14;6.47;;;4.37;;
10882;SDS011;5494;51.796;10.952;2023-03-01T15:30:06;5.63;;;4.03;;
10882;SDS011;5494;51.796;10.952;2023-03-01T15:33:27;6.23;;;4.40;;
10882;SDS011;5494;51.796;10.952;2023-03-01T15:36:30;6.77;;;4.43;;
10882;SDS011;5494;51.796;10.952;2023-03-01T15:39:41;6.97;;;4.03;;
10882;SDS011;5494;51.796;10.952;2023-03-01T15:42:37;5.93;;;3.70;;
10882;SDS011;5494;51.796;10.952;2023-03-01T15:45:26;8.47;;;4.43;;
10882;SDS011;5494;51.796;10.952;2023-03-01T15:48:17;8.87;;;4.20;;
10882;SDS011;5494;51.796;10.952;2023-03-01T15:51:10;6.80;;;4.47;;
10882;SDS011;5494;51.796;10.952;2023-03-01T15:54:03;6.57;;;4.70;;
10882;SDS011;5494;51.796;10.952;2023-03-01T15:57:03;8.67;;;4.47;;
10882;SDS011;5494;51.796;10.952;2023-03-01T15:59:51;7.47;;;4.90;;
10882;SDS011;5494;51.796;10.952;2023-03-01T16:02:39;6.67;;;4.87;;
10882;SDS011;5494;51.796;10.952;2023-03-01T16:05:30;12.80;;;5.93;;
10882;SDS011;5494;51.796;10.952;2023-03-01T16:08:21;9.37;;;5.07;;
10882;SDS011;5494;51.796;10.952;2023-03-01T16:11:11;7.33;;;5.00;;
10882;SDS011;5494;51.796;10.952;2023-03-01T16:14:05;9.10;;;5.30;;
10882;SDS011;5494;51.796;10.952;2023-03-01T16:16:53;6.20;;;4.40;;
10882;SDS011;5494;51.796;10.952;2023-03-01T16:19:42;7.93;;;4.47;;
10882;SDS011;5494;51.796;10.952;2023-03-01T16:22:30;7.47;;;5.13;;
10882;SDS011;5494;51.796;10.952;2023-03-01T16:25:19;9.00;;;5.73;;
10882;SDS011;5494;51.796;10.952;2023-03-01T16:28:08;10.57;;;5.23;;
10882;SDS011;5494;51.796;10.952;2023-03-01T16:30:58;5.80;;;4.27;;
10882;SDS011;5494;51.796;10.952;2023-03-01T16:33:48;9.20;;;5.13;;
10882;SDS011;5494;51.796;10.952;2023-03-01T16:36:38;8.83;;;5.50;;
10882;SDS011;5494;51.796;10.952;2023-03-01T16:39:26;12.03;;;4.90;;
10882;SDS011;5494;51.796;10.952;2023-03-01T16:42:14;7.20;;;4.77;;
10882;SDS011;5494;51.796;10.952;2023-03-01T16:45:03;5.87;;;4.20;;
10882;SDS011;5494;51.796;10.952;2023-03-01T16:48:10;7.60;;;4.90;;
10882;SDS011;5494;51.796;10.952;2023-03-01T16:50:59;7.50;;;4.67;;
10882;SDS011;5494;51.796;10.952;2023-03-01T16:53:50;7.10;;;4.73;;
10882;SDS011;5494;51.796;10.952;2023-03-01T16:56:39;9.37;;;5.53;;
10882;SDS011;5494;51.796;10.952;2023-03-01T16:59:27;12.80;;;6.60;;
10882;SDS011;5494;51.796;10.952;2023-03-01T17:02:15;27.57;;;15.40;;
10882;SDS011;5494;51.796;10.952;2023-03-01T17:05:07;37.77;;;20.30;;
10882;SDS011;5494;51.796;10.952;2023-03-01T17:07:57;42.60;;;23.17;;
10882;SDS011;5494;51.796;10.952;2023-03-01T17:10:46;28.17;;;17.43;;
10882;SDS011;5494;51.796;10.952;2023-03-01T17:13:34;23.10;;;14.83;;
10882;SDS011;5494;51.796;10.952;2023-03-01T17:16:24;25.80;;;14.63;;
10882;SDS011;5494;51.796;10.952;2023-03-01T17:19:13;25.60;;;14.37;;
10882;SDS011;5494;51.796;10.952;2023-03-01T17:22:05;19.47;;;11.37;;
10882;SDS011;5494;51.796;10.952;2023-03-01T17:24:54;14.57;;;9.53;;
10882;SDS011;5494;51.796;10.952;2023-03-01T17:27:42;10.87;;;7.77;;
10882;SDS011;5494;51.796;10.952;2023-03-01T17:30:31;16.63;;;9.03;;
10882;SDS011;5494;51.796;10.952;2023-03-01T17:33:19;23.38;;;14.15;;
10882;SDS011;5494;51.796;10.952;2023-03-01T17:36:09;68.95;;;32.97;;
10882;SDS011;5494;51.796;10.952;2023-03-01T17:38:59;88.82;;;41.05;;
10882;SDS011;5494;51.796;10.952;2023-03-01T17:41:47;62.45;;;28.02;;